sensor_id;sensor_type;location;lat;lon;timestamp;temperature;humidity
44170;DHT22;29836;52.286;9.576;2023-04-15T00:00:33;5.40;99.90
44170;DHT22;29836;52.286;9.576;2023-04-15T00:02:59;5.40;99.90
44170;DHT22;29836;52.286;9.576;2023-04-15T00:05:28;5.40;99.90
44170;DHT22;29836;52.286;9.576;2023-04-15T00:07:53;5.40;99.90
44170;DHT22;29836;52.286;9.576;2023-04-15T00:10:19;5.40;99.90
44170;DHT22;29836;52.286;9.576;2023-04-15T00:12:44;5.40;99.90
44170;DHT22;29836;52.286;9.576;2023-04-15T00:15:10;5.40;99.90
44170;DHT22;29836;52.286;9.576;2023-04-15T00:17:36;5.40;99.90
44170;DHT22;29836;52.286;9.576;2023-04-15T00:20:04;5.40;99.90
44170;DHT22;29836;52.286;9.576;2023-04-15T00:22:31;5.40;99.90
44170;DHT22;29836;52.286;9.576;2023-04-15T00:24:57;5.40;99.90
44170;DHT22;29836;52.286;9.576;2023-04-15T00:27:22;5.40;99.90
44170;DHT22;29836;52.286;9.576;2023-04-15T00:29:48;5.40;99.90
44170;DHT22;29836;52.286;9.576;2023-04-15T00:32:13;5.40;99.90
44170;DHT22;29836;52.286;9.576;2023-04-15T00:34:39;5.30;99.90
44170;DHT22;29836;52.286;9.576;2023-04-15T00:37:05;5.30;99.90
44170;DHT22;29836;52.286;9.576;2023-04-15T00:39:30;5.20;99.90
44170;DHT22;29836;52.286;9.576;2023-04-15T00:41:56;5.20;99.90
44170;DHT22;29836;52.286;9.576;2023-04-15T00:44:22;5.10;99.90
44170;DHT22;29836;52.286;9.576;2023-04-15T00:46:50;5.20;99.90
44170;DHT22;29836;52.286;9.576;2023-04-15T00:49:16;5.20;99.90
44170;DHT22;29836;52.286;9.576;2023-04-15T00:51:42;5.20;99.90
44170;DHT22;29836;52.286;9.576;2023-04-15T00:54:09;5.10;99.90
44170;DHT22;29836;52.286;9.576;2023-04-15T00:56:35;5.10;99.90
44170;DHT22;29836;52.286;9.576;2023-04-15T00:59:02;5.10;99.90
44170;DHT22;29836;52.286;9.576;2023-04-15T01:01:28;5.10;99.90
44170;DHT22;29836;52.286;9.576;2023-04-15T01:03:57;5.10;99.90
44170;DHT22;29836;52.286;9.576;2023-04-15T01:06:23;5.20;99.90
44170;DHT22;29836;52.286;9.576;2023-04-15T01:08:48;5.20;99.90
44170;DHT22;29836;52.286;9.576;2023-04-15T01:11:14;5.30;99.90
44170;DHT22;29836;52.286;9.576;2023-04-15T01:13:40;5.30;99.90
44170;DHT22;29836;52.286;9.576;2023-04-15T01:16:06;5.30;99.90
44170;DHT22;29836;52.286;9.576;2023-04-15T01:18:33;5.30;99.90
44170;DHT22;29836;52.286;9.576;2023-04-15T01:21:00;5.30;99.90
44170;DHT22;29836;52.286;9.576;2023-04-15T01:23:28;5.30;99.90
44170;DHT22;29836;52.286;9.576;2023-04-15T01:25:55;5.30;99.90
44170;DHT22;29836;52.286;9.576;2023-04-15T01:28:20;5.40;99.90
44170;DHT22;29836;52.286;9.576;2023-04-15T01:30:46;5.40;99.90
44170;DHT22;29836;52.286;9.576;2023-04-15T01:33:12;5.40;99.90
44170;DHT22;29836;52.286;9.576;2023-04-15T01:35:37;5.50;99.90
44170;DHT22;29836;52.286;9.576;2023-04-15T01:38:07;5.50;99.90
44170;DHT22;29836;52.286;9.576;2023-04-15T01:40:34;5.50;99.90
44170;DHT22;29836;52.286;9.576;2023-04-15T01:43:00;5.50;99.90
44170;DHT22;29836;52.286;9.576;2023-04-15T01:45:26;5.50;99.90
44170;DHT22;29836;52.286;9.576;2023-04-15T01:47:52;5.50;99.90
44170;DHT22;29836;52.286;9.576;2023-04-15T01:50:17;5.50;99.90
44170;DHT22;29836;52.286;9.576;2023-04-15T01:52:43;5.50;99.90
44170;DHT22;29836;52.286;9.576;2023-04-15T01:55:10;5.50;99.90
44170;DHT22;29836;52.286;9.576;2023-04-15T01:57:35;5.50;99.90
44170;DHT22;29836;52.286;9.576;2023-04-15T02:00:01;5.50;99.90
44170;DHT22;29836;52.286;9.576;2023-04-15T02:02:28;5.50;99.90
44170;DHT22;29836;52.286;9.576;2023-04-15T02:04:53;5.50;99.90
44170;DHT22;29836;52.286;9.576;2023-04-15T02:07:19;5.50;99.90
44170;DHT22;29836;52.286;9.576;2023-04-15T02:09:44;5.40;99.90
44170;DHT22;29836;52.286;9.576;2023-04-15T02:12:10;5.50;99.90
44170;DHT22;29836;52.286;9.576;2023-04-15T02:14:36;5.40;99.90
44170;DHT22;29836;52.286;9.576;2023-04-15T02:17:01;5.50;99.90
44170;DHT22;29836;52.286;9.576;2023-04-15T02:19:32;5.50;99.90
44170;DHT22;29836;52.286;9.576;2023-04-15T02:21:57;5.50;99.90
44170;DHT22;29836;52.286;9.576;2023-04-15T02:24:23;5.50;99.90
44170;DHT22;29836;52.286;9.576;2023-04-15T02:26:48;5.40;99.90
44170;DHT22;29836;52.286;9.576;2023-04-15T02:29:14;5.50;99.90
44170;DHT22;29836;52.286;9.576;2023-04-15T02:31:39;5.50;99.90
44170;DHT22;29836;52.286;9.576;2023-04-15T02:34:06;5.60;99.90
44170;DHT22;29836;52.286;9.576;2023-04-15T02:36:32;5.60;99.90
44170;DHT22;29836;52.286;9.576;2023-04-15T02:38:58;5.60;99.90
44170;DHT22;29836;52.286;9.576;2023-04-15T02:41:24;5.70;99.90
44170;DHT22;29836;52.286;9.576;2023-04-15T02:43:52;5.80;99.90
44170;DHT22;29836;52.286;9.576;2023-04-15T02:46:17;5.70;99.90
44170;DHT22;29836;52.286;9.576;2023-04-15T02:48:43;5.80;99.90
44170;DHT22;29836;52.286;9.576;2023-04-15T02:51:17;5.80;99.90
44170;DHT22;29836;52.286;9.576;2023-04-15T02:53:44;5.80;99.90
44170;DHT22;29836;52.286;9.576;2023-04-15T02:56:10;5.80;99.90
44170;DHT22;29836;52.286;9.576;2023-04-15T02:58:36;5.90;99.90
44170;DHT22;29836;52.286;9.576;2023-04-15T03:01:01;5.90;99.90
44170;DHT22;29836;52.286;9.576;2023-04-15T03:03:27;5.90;99.90
44170;DHT22;29836;52.286;9.576;2023-04-15T03:05:53;5.90;99.90
44170;DHT22;29836;52.286;9.576;2023-04-15T03:08:18;5.90;99.90
44170;DHT22;29836;52.286;9.576;2023-04-15T03:10:45;5.90;99.90
44170;DHT22;29836;52.286;9.576;2023-04-15T03:13:11;5.90;99.90
44170;DHT22;29836;52.286;9.576;2023-04-15T03:15:37;5.90;99.90
44170;DHT22;29836;52.286;9.576;2023-04-15T03:18:02;6.00;99.90
44170;DHT22;29836;52.286;9.576;2023-04-15T03:20:28;6.10;99.90
44170;DHT22;29836;52.286;9.576;2023-04-15T03:22:53;6.10;99.90
44170;DHT22;29836;52.286;9.576;2023-04-15T03:25:19;6.00;99.90
44170;DHT22;29836;52.286;9.576;2023-04-15T03:27:44;6.00;99.90
44170;DHT22;29836;52.286;9.576;2023-04-15T03:30:10;6.00;99.90
44170;DHT22;29836;52.286;9.576;2023-04-15T03:32:36;6.00;99.90
44170;DHT22;29836;52.286;9.576;2023-04-15T03:35:02;6.00;99.90
44170;DHT22;29836;52.286;9.576;2023-04-15T03:37:27;6.00;99.90
44170;DHT22;29836;52.286;9.576;2023-04-15T03:39:53;6.00;99.90
44170;DHT22;29836;52.286;9.576;2023-04-15T03:42:18;6.00;99.90
44170;DHT22;29836;52.286;9.576;2023-04-15T03:44:44;6.00;99.90
44170;DHT22;29836;52.286;9.576;2023-04-15T03:47:10;5.90;99.90
44170;DHT22;29836;52.286;9.576;2023-04-15T03:49:35;6.00;99.90
44170;DHT22;29836;52.286;9.576;2023-04-15T03:52:01;6.00;99.90
44170;DHT22;29836;52.286;9.576;2023-04-15T03:54:26;6.00;99.90
44170;DHT22;29836;52.286;9.576;2023-04-15T03:56:52;6.10;99.90
44170;DHT22;29836;52.286;9.576;2023-04-15T03:59:18;6.00;99.90
44170;DHT22;29836;52.286;9.576;2023-04-15T04:01:44;6.10;99.90
44170;DHT22;29836;52.286;9.576;2023-04-15T04:04:09;6.10;99.90
44170;DHT22;29836;52.286;9.576;2023-04-15T04:06:35;6.10;99.90
44170;DHT22;29836;52.286;9.576;2023-04-15T04:09:00;6.10;99.90
44170;DHT22;29836;52.286;9.576;2023-04-15T04:11:26;6.00;99.90
44170;DHT22;29836;52.286;9.576;2023-04-15T04:13:52;6.00;99.90
44170;DHT22;29836;52.286;9.576;2023-04-15T04:16:18;6.00;99.90
44170;DHT22;29836;52.286;9.576;2023-04-15T04:18:43;6.00;99.90
44170;DHT22;29836;52.286;9.576;2023-04-15T04:21:09;5.90;99.90
44170;DHT22;29836;52.286;9.576;2023-04-15T04:23:34;5.90;99.90
44170;DHT22;29836;52.286;9.576;2023-04-15T04:26:00;5.90;99.90
44170;DHT22;29836;52.286;9.576;2023-04-15T04:28:25;5.90;99.90
44170;DHT22;29836;52.286;9.576;2023-04-15T04:30:51;5.90;99.90
44170;DHT22;29836;52.286;9.576;2023-04-15T04:33:16;5.90;99.90
44170;DHT22;29836;52.286;9.576;2023-04-15T04:35:42;5.90;99.90
44170;DHT22;29836;52.286;9.576;2023-04-15T04:38:07;5.90;99.90
44170;DHT22;29836;52.286;9.576;2023-04-15T04:40:33;5.80;99.90
44170;DHT22;29836;52.286;9.576;2023-04-15T04:42:59;5.80;99.90
44170;DHT22;29836;52.286;9.576;2023-04-15T04:45:24;5.80;99.90
44170;DHT22;29836;52.286;9.576;2023-04-15T04:47:50;5.70;99.90
44170;DHT22;29836;52.286;9.576;2023-04-15T04:50:15;5.70;99.90
44170;DHT22;29836;52.286;9.576;2023-04-15T04:52:41;5.70;99.90
44170;DHT22;29836;52.286;9.576;2023-04-15T04:55:06;5.70;99.90
44170;DHT22;29836;52.286;9.576;2023-04-15T04:57:33;5.70;99.90
44170;DHT22;29836;52.286;9.576;2023-04-15T05:00:00;5.70;99.90
44170;DHT22;29836;52.286;9.576;2023-04-15T05:02:26;5.60;99.90
44170;DHT22;29836;52.286;9.576;2023-04-15T05:04:52;5.60;99.90
44170;DHT22;29836;52.286;9.576;2023-04-15T05:07:18;5.60;99.90
44170;DHT22;29836;52.286;9.576;2023-04-15T05:09:45;5.70;99.90
44170;DHT22;29836;52.286;9.576;2023-04-15T05:12:10;5.70;99.90
44170;DHT22;29836;52.286;9.576;2023-04-15T05:14:42;5.70;99.90
44170;DHT22;29836;52.286;9.576;2023-04-15T05:17:08;5.70;99.90
44170;DHT22;29836;52.286;9.576;2023-04-15T05:19:33;5.70;99.90
44170;DHT22;29836;52.286;9.576;2023-04-15T05:21:59;5.70;99.90
44170;DHT22;29836;52.286;9.576;2023-04-15T05:24:25;5.70;99.90
44170;DHT22;29836;52.286;9.576;2023-04-15T05:26:51;5.70;99.90
44170;DHT22;29836;52.286;9.576;2023-04-15T05:29:17;5.80;99.90
44170;DHT22;29836;52.286;9.576;2023-04-15T05:31:42;5.70;99.90
44170;DHT22;29836;52.286;9.576;2023-04-15T05:34:08;5.80;99.90
44170;DHT22;29836;52.286;9.576;2023-04-15T05:36:34;5.80;99.90
44170;DHT22;29836;52.286;9.576;2023-04-15T05:39:00;5.80;99.90
44170;DHT22;29836;52.286;9.576;2023-04-15T05:41:26;5.80;99.90
44170;DHT22;29836;52.286;9.576;2023-04-15T05:43:51;5.80;99.90
44170;DHT22;29836;52.286;9.576;2023-04-15T05:46:17;5.80;99.90
44170;DHT22;29836;52.286;9.576;2023-04-15T05:48:42;5.80;99.90
44170;DHT22;29836;52.286;9.576;2023-04-15T05:51:08;5.80;99.90
44170;DHT22;29836;52.286;9.576;2023-04-15T05:53:33;5.80;99.90
44170;DHT22;29836;52.286;9.576;2023-04-15T05:55:59;5.80;99.90
44170;DHT22;29836;52.286;9.576;2023-04-15T05:58:24;5.80;99.90
44170;DHT22;29836;52.286;9.576;2023-04-15T06:00:50;5.80;99.90
44170;DHT22;29836;52.286;9.576;2023-04-15T06:03:16;5.80;99.90
44170;DHT22;29836;52.286;9.576;2023-04-15T06:05:42;5.80;99.90
44170;DHT22;29836;52.286;9.576;2023-04-15T06:08:09;5.90;99.90
44170;DHT22;29836;52.286;9.576;2023-04-15T06:10:34;5.90;99.90
44170;DHT22;29836;52.286;9.576;2023-04-15T06:13:04;5.90;99.90
44170;DHT22;29836;52.286;9.576;2023-04-15T06:15:30;5.90;99.90
44170;DHT22;29836;52.286;9.576;2023-04-15T06:17:56;5.90;99.90
44170;DHT22;29836;52.286;9.576;2023-04-15T06:20:22;6.00;99.90
44170;DHT22;29836;52.286;9.576;2023-04-15T06:22:48;5.90;99.90
44170;DHT22;29836;52.286;9.576;2023-04-15T06:25:13;6.00;99.90
44170;DHT22;29836;52.286;9.576;2023-04-15T06:27:39;6.00;99.90
44170;DHT22;29836;52.286;9.576;2023-04-15T06:30:05;6.00;99.90
44170;DHT22;29836;52.286;9.576;2023-04-15T06:32:31;6.00;99.90
44170;DHT22;29836;52.286;9.576;2023-04-15T06:34:57;6.00;99.90
44170;DHT22;29836;52.286;9.576;2023-04-15T06:37:22;6.00;99.90
44170;DHT22;29836;52.286;9.576;2023-04-15T06:39:48;6.00;99.90
44170;DHT22;29836;52.286;9.576;2023-04-15T06:42:13;6.00;99.90
44170;DHT22;29836;52.286;9.576;2023-04-15T06:44:39;6.00;99.90
44170;DHT22;29836;52.286;9.576;2023-04-15T06:47:05;6.00;99.90
44170;DHT22;29836;52.286;9.576;2023-04-15T06:49:30;6.00;99.90
44170;DHT22;29836;52.286;9.576;2023-04-15T06:51:56;6.00;99.90
44170;DHT22;29836;52.286;9.576;2023-04-15T06:54:21;6.10;99.90
44170;DHT22;29836;52.286;9.576;2023-04-15T06:56:47;6.00;99.90
44170;DHT22;29836;52.286;9.576;2023-04-15T06:59:13;6.10;99.90
44170;DHT22;29836;52.286;9.576;2023-04-15T07:01:39;6.10;99.90
44170;DHT22;29836;52.286;9.576;2023-04-15T07:04:05;6.10;99.90
44170;DHT22;29836;52.286;9.576;2023-04-15T07:06:31;6.10;99.90
44170;DHT22;29836;52.286;9.576;2023-04-15T07:08:57;6.10;99.90
44170;DHT22;29836;52.286;9.576;2023-04-15T07:11:24;6.10;99.90
44170;DHT22;29836;52.286;9.576;2023-04-15T07:13:50;6.10;99.90
44170;DHT22;29836;52.286;9.576;2023-04-15T07:16:15;6.20;99.90
44170;DHT22;29836;52.286;9.576;2023-04-15T07:18:41;6.20;99.90
44170;DHT22;29836;52.286;9.576;2023-04-15T07:21:06;6.20;99.90
44170;DHT22;29836;52.286;9.576;2023-04-15T07:23:32;6.20;99.90
44170;DHT22;29836;52.286;9.576;2023-04-15T07:25:58;6.20;99.90
44170;DHT22;29836;52.286;9.576;2023-04-15T07:28:23;6.30;99.90
44170;DHT22;29836;52.286;9.576;2023-04-15T07:30:49;6.30;99.90
44170;DHT22;29836;52.286;9.576;2023-04-15T07:33:14;6.30;99.90
44170;DHT22;29836;52.286;9.576;2023-04-15T07:35:40;6.30;99.90
44170;DHT22;29836;52.286;9.576;2023-04-15T07:38:05;6.30;99.90
44170;DHT22;29836;52.286;9.576;2023-04-15T07:40:31;6.30;99.90
44170;DHT22;29836;52.286;9.576;2023-04-15T07:42:57;6.30;99.90
44170;DHT22;29836;52.286;9.576;2023-04-15T07:45:23;6.30;99.90
44170;DHT22;29836;52.286;9.576;2023-04-15T07:47:48;6.30;99.90
44170;DHT22;29836;52.286;9.576;2023-04-15T07:50:15;6.40;99.90
44170;DHT22;29836;52.286;9.576;2023-04-15T07:52:41;6.40;99.90
44170;DHT22;29836;52.286;9.576;2023-04-15T07:55:08;6.30;99.90
44170;DHT22;29836;52.286;9.576;2023-04-15T07:57:34;6.30;99.90
44170;DHT22;29836;52.286;9.576;2023-04-15T08:00:00;6.30;99.90
44170;DHT22;29836;52.286;9.576;2023-04-15T08:02:28;6.30;99.90
44170;DHT22;29836;52.286;9.576;2023-04-15T08:04:53;6.40;99.90
44170;DHT22;29836;52.286;9.576;2023-04-15T08:07:19;6.40;99.90
44170;DHT22;29836;52.286;9.576;2023-04-15T08:09:45;6.50;99.90
44170;DHT22;29836;52.286;9.576;2023-04-15T08:12:11;6.40;99.90
44170;DHT22;29836;52.286;9.576;2023-04-15T08:14:38;6.50;99.90
44170;DHT22;29836;52.286;9.576;2023-04-15T08:17:04;6.50;99.90
44170;DHT22;29836;52.286;9.576;2023-04-15T08:19:30;6.50;99.90
44170;DHT22;29836;52.286;9.576;2023-04-15T08:21:58;6.50;99.90
44170;DHT22;29836;52.286;9.576;2023-04-15T08:24:26;6.50;99.90
44170;DHT22;29836;52.286;9.576;2023-04-15T08:26:52;6.50;99.90
44170;DHT22;29836;52.286;9.576;2023-04-15T08:29:17;6.50;99.90
44170;DHT22;29836;52.286;9.576;2023-04-15T08:31:52;6.50;99.90
44170;DHT22;29836;52.286;9.576;2023-04-15T08:34:18;6.60;99.90
44170;DHT22;29836;52.286;9.576;2023-04-15T08:36:44;6.60;99.90
44170;DHT22;29836;52.286;9.576;2023-04-15T08:39:09;6.60;99.90
44170;DHT22;29836;52.286;9.576;2023-04-15T08:41:46;6.70;99.90
44170;DHT22;29836;52.286;9.576;2023-04-15T08:44:13;6.70;99.90
44170;DHT22;29836;52.286;9.576;2023-04-15T08:46:40;6.70;99.90
44170;DHT22;29836;52.286;9.576;2023-04-15T08:49:09;6.80;99.90
44170;DHT22;29836;52.286;9.576;2023-04-15T08:51:35;6.80;99.90
44170;DHT22;29836;52.286;9.576;2023-04-15T08:54:02;6.80;99.90
44170;DHT22;29836;52.286;9.576;2023-04-15T08:56:30;6.80;99.90
44170;DHT22;29836;52.286;9.576;2023-04-15T08:58:57;6.80;99.90
44170;DHT22;29836;52.286;9.576;2023-04-15T09:01:23;6.80;99.90
44170;DHT22;29836;52.286;9.576;2023-04-15T09:03:49;6.80;99.90
44170;DHT22;29836;52.286;9.576;2023-04-15T09:06:18;6.80;99.90
44170;DHT22;29836;52.286;9.576;2023-04-15T09:08:43;6.80;99.90
44170;DHT22;29836;52.286;9.576;2023-04-15T09:11:09;6.80;99.90
44170;DHT22;29836;52.286;9.576;2023-04-15T09:13:34;6.80;99.90
44170;DHT22;29836;52.286;9.576;2023-04-15T09:16:05;6.80;99.90
44170;DHT22;29836;52.286;9.576;2023-04-15T09:18:32;6.80;99.90
44170;DHT22;29836;52.286;9.576;2023-04-15T09:21:08;6.80;99.90
44170;DHT22;29836;52.286;9.576;2023-04-15T09:23:36;6.90;99.90
44170;DHT22;29836;52.286;9.576;2023-04-15T09:26:03;6.90;99.90
44170;DHT22;29836;52.286;9.576;2023-04-15T09:28:28;6.90;99.90
44170;DHT22;29836;52.286;9.576;2023-04-15T09:30:55;6.90;99.90
44170;DHT22;29836;52.286;9.576;2023-04-15T09:33:22;6.90;99.90
44170;DHT22;29836;52.286;9.576;2023-04-15T09:36:04;6.90;99.90
44170;DHT22;29836;52.286;9.576;2023-04-15T09:38:30;7.00;99.90
44170;DHT22;29836;52.286;9.576;2023-04-15T09:40:57;6.90;99.90
44170;DHT22;29836;52.286;9.576;2023-04-15T09:43:36;6.90;99.90
44170;DHT22;29836;52.286;9.576;2023-04-15T09:46:02;7.00;99.90
44170;DHT22;29836;52.286;9.576;2023-04-15T09:48:28;6.90;99.90
44170;DHT22;29836;52.286;9.576;2023-04-15T09:50:59;7.00;99.90
44170;DHT22;29836;52.286;9.576;2023-04-15T09:53:26;7.00;99.90
44170;DHT22;29836;52.286;9.576;2023-04-15T09:55:56;7.10;99.90
44170;DHT22;29836;52.286;9.576;2023-04-15T09:58:24;7.10;99.90
44170;DHT22;29836;52.286;9.576;2023-04-15T10:00:51;7.10;99.90
44170;DHT22;29836;52.286;9.576;2023-04-15T10:03:25;7.10;99.90
44170;DHT22;29836;52.286;9.576;2023-04-15T10:05:53;7.10;99.90
44170;DHT22;29836;52.286;9.576;2023-04-15T10:08:20;7.10;99.90
44170;DHT22;29836;52.286;9.576;2023-04-15T10:10:47;7.10;99.90
44170;DHT22;29836;52.286;9.576;2023-04-15T10:13:15;7.10;99.90
44170;DHT22;29836;52.286;9.576;2023-04-15T10:15:43;7.20;99.90
44170;DHT22;29836;52.286;9.576;2023-04-15T10:18:11;7.20;99.90
44170;DHT22;29836;52.286;9.576;2023-04-15T10:20:37;7.10;99.90
44170;DHT22;29836;52.286;9.576;2023-04-15T10:23:03;7.20;99.90
44170;DHT22;29836;52.286;9.576;2023-04-15T10:25:29;7.20;99.90
44170;DHT22;29836;52.286;9.576;2023-04-15T10:27:55;7.20;99.90
44170;DHT22;29836;52.286;9.576;2023-04-15T10:30:22;7.20;99.90
44170;DHT22;29836;52.286;9.576;2023-04-15T10:32:48;7.20;99.90
44170;DHT22;29836;52.286;9.576;2023-04-15T10:35:14;7.20;99.90
44170;DHT22;29836;52.286;9.576;2023-04-15T10:37:40;7.30;99.90
44170;DHT22;29836;52.286;9.576;2023-04-15T10:42:48;7.40;99.90
44170;DHT22;29836;52.286;9.576;2023-04-15T10:45:17;7.40;99.90
44170;DHT22;29836;52.286;9.576;2023-04-15T10:47:43;7.40;99.90
44170;DHT22;29836;52.286;9.576;2023-04-15T10:50:09;7.40;99.90
44170;DHT22;29836;52.286;9.576;2023-04-15T10:52:39;7.40;99.90
44170;DHT22;29836;52.286;9.576;2023-04-15T10:55:19;7.40;99.90
44170;DHT22;29836;52.286;9.576;2023-04-15T10:57:44;7.40;99.90
44170;DHT22;29836;52.286;9.576;2023-04-15T11:00:11;7.40;99.90
44170;DHT22;29836;52.286;9.576;2023-04-15T11:02:42;7.50;99.90
44170;DHT22;29836;52.286;9.576;2023-04-15T11:05:10;7.60;99.90
44170;DHT22;29836;52.286;9.576;2023-04-15T11:12:39;7.70;99.90
44170;DHT22;29836;52.286;9.576;2023-04-15T11:17:50;7.70;99.90
44170;DHT22;29836;52.286;9.576;2023-04-15T11:20:16;7.90;99.90
44170;DHT22;29836;52.286;9.576;2023-04-15T11:22:52;7.90;99.90
44170;DHT22;29836;52.286;9.576;2023-04-15T11:25:29;7.90;99.90
44170;DHT22;29836;52.286;9.576;2023-04-15T11:27:55;7.90;99.90
44170;DHT22;29836;52.286;9.576;2023-04-15T11:30:22;7.90;99.90
44170;DHT22;29836;52.286;9.576;2023-04-15T11:32:48;8.00;99.90
44170;DHT22;29836;52.286;9.576;2023-04-15T11:35:15;7.90;99.90
44170;DHT22;29836;52.286;9.576;2023-04-15T11:37:41;8.00;99.90
44170;DHT22;29836;52.286;9.576;2023-04-15T11:40:08;8.00;99.90
44170;DHT22;29836;52.286;9.576;2023-04-15T11:42:33;8.00;99.90
44170;DHT22;29836;52.286;9.576;2023-04-15T11:45:23;8.00;99.90
44170;DHT22;29836;52.286;9.576;2023-04-15T11:47:49;8.10;99.90
44170;DHT22;29836;52.286;9.576;2023-04-15T11:50:20;8.10;99.90
44170;DHT22;29836;52.286;9.576;2023-04-15T11:52:55;8.20;99.90
44170;DHT22;29836;52.286;9.576;2023-04-15T11:55:22;8.20;99.90
44170;DHT22;29836;52.286;9.576;2023-04-15T11:57:49;8.30;99.90
44170;DHT22;29836;52.286;9.576;2023-04-15T12:00:15;8.30;99.90
44170;DHT22;29836;52.286;9.576;2023-04-15T12:02:42;8.20;99.90
44170;DHT22;29836;52.286;9.576;2023-04-15T12:05:08;8.20;99.90
44170;DHT22;29836;52.286;9.576;2023-04-15T12:07:57;8.20;99.90
44170;DHT22;29836;52.286;9.576;2023-04-15T12:10:23;8.20;99.90
44170;DHT22;29836;52.286;9.576;2023-04-15T12:12:51;8.30;99.90
44170;DHT22;29836;52.286;9.576;2023-04-15T12:15:20;8.40;99.90
44170;DHT22;29836;52.286;9.576;2023-04-15T12:17:46;8.40;99.90
44170;DHT22;29836;52.286;9.576;2023-04-15T12:20:11;8.40;99.90
44170;DHT22;29836;52.286;9.576;2023-04-15T12:22:37;8.50;99.90
44170;DHT22;29836;52.286;9.576;2023-04-15T12:25:03;8.50;99.90
44170;DHT22;29836;52.286;9.576;2023-04-15T12:27:30;8.50;99.90
44170;DHT22;29836;52.286;9.576;2023-04-15T12:30:06;8.50;99.90
44170;DHT22;29836;52.286;9.576;2023-04-15T12:32:35;8.50;99.90
44170;DHT22;29836;52.286;9.576;2023-04-15T12:35:00;8.50;99.90
44170;DHT22;29836;52.286;9.576;2023-04-15T12:37:26;8.50;99.90
44170;DHT22;29836;52.286;9.576;2023-04-15T12:39:51;8.60;99.90
44170;DHT22;29836;52.286;9.576;2023-04-15T12:42:18;8.60;99.90
44170;DHT22;29836;52.286;9.576;2023-04-15T12:44:44;8.60;99.90
44170;DHT22;29836;52.286;9.576;2023-04-15T12:47:11;8.60;99.90
44170;DHT22;29836;52.286;9.576;2023-04-15T12:49:37;8.70;99.90
44170;DHT22;29836;52.286;9.576;2023-04-15T12:52:04;8.70;99.90
44170;DHT22;29836;52.286;9.576;2023-04-15T12:54:30;8.70;99.90
44170;DHT22;29836;52.286;9.576;2023-04-15T12:56:57;8.80;99.90
44170;DHT22;29836;52.286;9.576;2023-04-15T12:59:22;8.80;99.90
44170;DHT22;29836;52.286;9.576;2023-04-15T13:01:48;8.80;99.90
44170;DHT22;29836;52.286;9.576;2023-04-15T13:04:15;8.80;99.90
44170;DHT22;29836;52.286;9.576;2023-04-15T13:06:41;8.80;99.90
44170;DHT22;29836;52.286;9.576;2023-04-15T13:09:07;8.80;99.90
44170;DHT22;29836;52.286;9.576;2023-04-15T13:11:32;8.80;99.90
44170;DHT22;29836;52.286;9.576;2023-04-15T13:14:00;8.80;99.90
44170;DHT22;29836;52.286;9.576;2023-04-15T13:16:25;8.80;99.90
44170;DHT22;29836;52.286;9.576;2023-04-15T13:18:51;8.80;99.90
44170;DHT22;29836;52.286;9.576;2023-04-15T13:21:17;8.90;99.90
44170;DHT22;29836;52.286;9.576;2023-04-15T13:23:43;9.00;99.90
44170;DHT22;29836;52.286;9.576;2023-04-15T13:26:09;9.10;99.90
44170;DHT22;29836;52.286;9.576;2023-04-15T13:28:34;9.10;99.90
44170;DHT22;29836;52.286;9.576;2023-04-15T13:31:00;9.10;99.90
44170;DHT22;29836;52.286;9.576;2023-04-15T13:33:26;9.10;99.90
44170;DHT22;29836;52.286;9.576;2023-04-15T13:35:52;9.20;99.90
44170;DHT22;29836;52.286;9.576;2023-04-15T13:38:17;9.20;99.90
44170;DHT22;29836;52.286;9.576;2023-04-15T13:40:43;9.20;99.90
44170;DHT22;29836;52.286;9.576;2023-04-15T13:43:08;9.20;99.90
44170;DHT22;29836;52.286;9.576;2023-04-15T13:45:34;9.30;99.90
44170;DHT22;29836;52.286;9.576;2023-04-15T13:48:00;9.30;99.90
44170;DHT22;29836;52.286;9.576;2023-04-15T13:50:26;9.30;99.90
44170;DHT22;29836;52.286;9.576;2023-04-15T13:52:51;9.30;99.90
44170;DHT22;29836;52.286;9.576;2023-04-15T13:55:17;9.30;99.90
44170;DHT22;29836;52.286;9.576;2023-04-15T13:57:42;9.30;99.90
44170;DHT22;29836;52.286;9.576;2023-04-15T14:00:08;9.40;99.90
44170;DHT22;29836;52.286;9.576;2023-04-15T14:02:34;9.50;99.90
44170;DHT22;29836;52.286;9.576;2023-04-15T14:04:59;9.50;99.90
44170;DHT22;29836;52.286;9.576;2023-04-15T14:07:25;9.50;99.90
44170;DHT22;29836;52.286;9.576;2023-04-15T14:09:50;9.50;99.90
44170;DHT22;29836;52.286;9.576;2023-04-15T14:12:16;9.60;99.90
44170;DHT22;29836;52.286;9.576;2023-04-15T14:14:41;9.80;99.90
44170;DHT22;29836;52.286;9.576;2023-04-15T14:17:07;10.20;99.90
44170;DHT22;29836;52.286;9.576;2023-04-15T14:19:34;10.70;99.90
44170;DHT22;29836;52.286;9.576;2023-04-15T14:21:59;10.90;99.90
44170;DHT22;29836;52.286;9.576;2023-04-15T14:24:25;11.00;99.90
44170;DHT22;29836;52.286;9.576;2023-04-15T14:26:51;11.10;99.90
44170;DHT22;29836;52.286;9.576;2023-04-15T14:29:17;11.00;99.90
44170;DHT22;29836;52.286;9.576;2023-04-15T14:31:42;10.90;99.90
44170;DHT22;29836;52.286;9.576;2023-04-15T14:34:09;10.70;99.90
44170;DHT22;29836;52.286;9.576;2023-04-15T14:36:35;10.80;99.90
44170;DHT22;29836;52.286;9.576;2023-04-15T14:39:00;11.00;99.90
44170;DHT22;29836;52.286;9.576;2023-04-15T14:41:28;11.20;99.90
44170;DHT22;29836;52.286;9.576;2023-04-15T14:43:53;11.90;99.90
44170;DHT22;29836;52.286;9.576;2023-04-15T14:46:19;12.30;99.90
44170;DHT22;29836;52.286;9.576;2023-04-15T14:48:44;12.20;99.90
44170;DHT22;29836;52.286;9.576;2023-04-15T14:51:10;12.00;99.90
44170;DHT22;29836;52.286;9.576;2023-04-15T14:53:36;11.70;99.90
44170;DHT22;29836;52.286;9.576;2023-04-15T14:56:01;11.40;99.90
44170;DHT22;29836;52.286;9.576;2023-04-15T14:58:27;11.30;99.90
44170;DHT22;29836;52.286;9.576;2023-04-15T15:00:52;11.10;99.90
44170;DHT22;29836;52.286;9.576;2023-04-15T15:03:18;11.00;99.90
44170;DHT22;29836;52.286;9.576;2023-04-15T15:05:44;10.90;99.90
44170;DHT22;29836;52.286;9.576;2023-04-15T15:08:11;10.90;99.90
44170;DHT22;29836;52.286;9.576;2023-04-15T15:10:37;10.80;99.90
44170;DHT22;29836;52.286;9.576;2023-04-15T15:13:05;10.90;99.90
44170;DHT22;29836;52.286;9.576;2023-04-15T15:15:31;10.80;99.90
44170;DHT22;29836;52.286;9.576;2023-04-15T15:17:57;10.80;99.90
44170;DHT22;29836;52.286;9.576;2023-04-15T15:20:23;10.80;99.90
44170;DHT22;29836;52.286;9.576;2023-04-15T15:22:49;10.80;99.90
44170;DHT22;29836;52.286;9.576;2023-04-15T15:25:14;10.70;99.90
44170;DHT22;29836;52.286;9.576;2023-04-15T15:27:40;10.90;99.90
44170;DHT22;29836;52.286;9.576;2023-04-15T15:30:06;11.00;99.90
44170;DHT22;29836;52.286;9.576;2023-04-15T15:32:31;11.20;99.90
44170;DHT22;29836;52.286;9.576;2023-04-15T15:34:57;11.30;99.90
44170;DHT22;29836;52.286;9.576;2023-04-15T15:37:23;11.30;99.90
44170;DHT22;29836;52.286;9.576;2023-04-15T15:39:48;11.30;99.90
44170;DHT22;29836;52.286;9.576;2023-04-15T15:42:15;11.40;99.90
44170;DHT22;29836;52.286;9.576;2023-04-15T15:44:40;11.50;99.90
44170;DHT22;29836;52.286;9.576;2023-04-15T15:47:06;11.40;99.90
44170;DHT22;29836;52.286;9.576;2023-04-15T15:49:32;11.30;99.90